C83 weather

Byron Airport
Byron, California, United States

Public forecast

Using degrees Fahrenheit for public forecast. Weather courtesy of forecast.io.

Closest aviation weather report (METAR) to Byron Airport

Closest report is Livermore Municipal Airport, 12.3 nm (22.7 km) SW. Retrieved 2019/11/13 10:53 UTC (32 minutes ago):

KLVK 131053Z AUTO 00000KT 8SM CLR 09/03 A3000 RMK AO2 SLP154 T00940033

Closest aviation forecast (TAF) to Byron Airport

Closest forecast is Livermore Municipal Airport, 12.3 nm (22.7 km) SW. Retrieved 2019/11/13 06:36 UTC (5 hours ago):

TAF KLVK 130535Z 1306/1406 VRB03KT P6SM SCT200 FM132000 08007KT P6SM SCT180 FM140300 VRB03KT P6SM SCT180